Time;durP1;ratioP1;P1;durP2;ratioP2;P2;SDS_P1;SDS_P2;PMS_P1;PMS_P2;Temp;Humidity;BMP_temperature;BMP_pressure;BME280_temperature;BME280_humidity;BME280_pressure;Samples;Min_cycle;Max_cycle;Signal;HPM_P1;HPM_P2
2022/01/15 00:01:27;;;;;;;;;;;-3.10;99.90;;;;;;5037559;28;20004;-86
2022/01/15 00:03:52;;;;;;;;;;;-3.10;99.90;;;;;;5023056;28;19920;-87
2022/01/15 00:06:18;;;;;;;;;;;-3.20;99.90;;;;;;5022705;28;19917;-87
2022/01/15 00:08:43;;;;;;;;;;;-3.30;99.90;;;;;;5024430;28;20403;-87
2022/01/15 00:11:09;;;;;;;;;;;-3.20;99.90;;;;;;5017604;28;19914;-85
2022/01/15 00:13:35;;;;;;;;;;;-3.30;99.90;;;;;;5034165;28;20587;-88
2022/01/15 00:16:06;;;;;;;;;;;-3.30;99.90;;;;;;5017640;28;20276;-88
2022/01/15 00:19:01;;;;;;;;;;;-3.30;99.90;;;;;;5035051;28;19913;-86
2022/01/15 00:21:26;;;;;;;;;;;-3.50;99.90;;;;;;5036270;28;20269;-87
2022/01/15 00:23:52;;;;;;;;;;;-3.50;99.90;;;;;;5036258;28;19917;-87
2022/01/15 00:26:17;;;;;;;;;;;-3.50;99.90;;;;;;5018825;28;19985;-87
2022/01/15 00:28:43;;;;;;;;;;;-3.50;99.90;;;;;;5017700;28;20067;-88
2022/01/15 00:31:08;;;;;;;;;;;-3.50;99.90;;;;;;5033688;28;20004;-86
2022/01/15 00:33:34;;;;;;;;;;;-3.50;99.90;;;;;;5034258;28;20673;-89
2022/01/15 00:36:00;;;;;;;;;;;-3.40;99.90;;;;;;5034276;28;20369;-85
2022/01/15 00:38:25;;;;;;;;;;;-3.40;99.90;;;;;;5033961;28;19913;-87
2022/01/15 00:40:51;;;;;;;;;;;-3.60;99.90;;;;;;5033546;28;20352;-87
2022/01/15 00:43:18;;;;;;;;;;;-3.60;99.90;;;;;;5034023;28;19913;-88
2022/01/15 00:45:43;;;;;;;;;;;-3.60;99.90;;;;;;5033707;28;19924;-87
2022/01/15 00:48:09;;;;;;;;;;;-3.60;99.90;;;;;;5033923;28;19909;-86
2022/01/15 00:50:34;;;;;;;;;;;-3.60;99.90;;;;;;5034239;28;20591;-86
2022/01/15 00:53:00;;;;;;;;;;;-3.50;99.90;;;;;;5017427;28;19917;-88
2022/01/15 00:55:25;;;;;;;;;;;-3.60;99.90;;;;;;5034514;28;19909;-87
2022/01/15 00:57:51;;;;;;;;;;;-3.70;99.90;;;;;;5034736;28;20350;-85
2022/01/15 01:00:18;;;;;;;;;;;-3.70;99.90;;;;;;5020359;28;19921;-86
2022/01/15 01:02:44;;;;;;;;;;;-3.70;99.90;;;;;;5033800;28;19996;-87
2022/01/15 01:05:10;;;;;;;;;;;-3.70;99.90;;;;;;5033515;28;20651;-86
2022/01/15 01:07:36;;;;;;;;;;;-3.70;99.90;;;;;;5034047;28;19910;-89
2022/01/15 01:10:22;;;;;;;;;;;-3.60;99.90;;;;;;5016877;28;20427;-86
2022/01/15 01:23:39;;;;;;;;;;;-3.60;99.90;;;;;;5017488;28;19932;-86
2022/01/15 01:26:23;;;;;;;;;;;-3.60;99.90;;;;;;5032259;28;19914;-86
2022/01/15 01:28:58;;;;;;;;;;;-3.60;99.90;;;;;;5032707;28;19918;-86
2022/01/15 01:31:32;;;;;;;;;;;-3.60;99.90;;;;;;5032005;28;19914;-89
2022/01/15 01:34:06;;;;;;;;;;;-3.60;99.90;;;;;;5032403;28;19988;-86
2022/01/15 01:36:58;;;;;;;;;;;-3.60;99.90;;;;;;5016338;28;20000;-86
2022/01/15 01:39:22;;;;;;;;;;;-3.70;99.90;;;;;;5026391;28;19916;-87
2022/01/15 01:42:04;;;;;;;;;;;-3.80;99.90;;;;;;5037199;28;19956;-86
2022/01/15 01:44:30;;;;;;;;;;;-3.80;99.90;;;;;;5037472;28;19915;-87
2022/01/15 01:47:03;;;;;;;;;;;-3.80;99.90;;;;;;5019527;28;19913;-85
2022/01/15 01:49:29;;;;;;;;;;;-3.80;99.90;;;;;;5036611;28;19960;-86
2022/01/15 01:51:55;;;;;;;;;;;-3.80;99.90;;;;;;5036594;28;19913;-89
2022/01/15 01:54:20;;;;;;;;;;;-3.70;99.90;;;;;;5036109;28;19913;-86
2022/01/15 01:56:47;;;;;;;;;;;-3.80;99.90;;;;;;5018506;28;19920;-88
2022/01/15 01:59:14;;;;;;;;;;;-3.70;99.90;;;;;;5034977;28;20319;-86
2022/01/15 02:01:40;;;;;;;;;;;-3.70;99.90;;;;;;5034857;28;20369;-88
2022/01/15 02:04:05;;;;;;;;;;;-3.80;99.90;;;;;;5035354;28;19920;-88
2022/01/15 02:06:31;;;;;;;;;;;-3.90;99.90;;;;;;5035442;28;19916;-88
2022/01/15 02:08:58;;;;;;;;;;;-3.90;99.90;;;;;;5035087;28;19928;-85
2022/01/15 02:11:25;;;;;;;;;;;-3.90;99.90;;;;;;5018727;28;19921;-87
2022/01/15 02:13:50;;;;;;;;;;;-3.90;99.90;;;;;;5034144;28;19925;-86
2022/01/15 02:16:16;;;;;;;;;;;-3.90;99.90;;;;;;5017920;28;19992;-87
2022/01/15 02:18:42;;;;;;;;;;;-3.90;99.90;;;;;;5031768;28;19963;-86
2022/01/15 02:23:36;;;;;;;;;;;-3.80;99.90;;;;;;5035970;28;19921;-86
2022/01/15 02:26:03;;;;;;;;;;;-3.70;99.90;;;;;;5034791;28;19909;-86
2022/01/15 02:28:30;;;;;;;;;;;-3.80;99.90;;;;;;5034552;28;20012;-88
2022/01/15 02:31:00;;;;;;;;;;;-3.80;99.90;;;;;;5017673;28;19913;-87
2022/01/15 02:33:26;;;;;;;;;;;-3.90;99.90;;;;;;5034156;28;19917;-86
2022/01/15 02:35:51;;;;;;;;;;;-3.90;99.90;;;;;;5034503;28;19909;-86
2022/01/15 02:38:17;;;;;;;;;;;-3.90;99.90;;;;;;5017980;28;20379;-87
2022/01/15 02:40:43;;;;;;;;;;;-4.00;99.90;;;;;;5035128;28;19916;-86
2022/01/15 02:43:11;;;;;;;;;;;-3.90;99.90;;;;;;5034770;28;20357;-87
2022/01/15 02:45:41;;;;;;;;;;;-3.90;99.90;;;;;;5036922;28;20323;-86
2022/01/15 02:48:11;;;;;;;;;;;-3.90;99.90;;;;;;5037790;28;20399;-85
2022/01/15 02:50:37;;;;;;;;;;;-3.90;99.90;;;;;;5037243;28;19913;-86
2022/01/15 02:53:03;;;;;;;;;;;-4.00;99.90;;;;;;5035364;28;19917;-86
2022/01/15 02:55:28;;;;;;;;;;;-4.00;99.90;;;;;;5018914;28;20287;-87
2022/01/15 02:57:54;;;;;;;;;;;-4.10;99.90;;;;;;5035795;28;19916;-87
2022/01/15 03:00:21;;;;;;;;;;;-4.20;99.90;;;;;;5035271;28;20326;-86
2022/01/15 03:02:47;;;;;;;;;;;-4.20;99.90;;;;;;5035615;28;19917;-86
2022/01/15 03:05:12;;;;;;;;;;;-4.10;99.90;;;;;;5018514;28;20356;-88
2022/01/15 03:07:38;;;;;;;;;;;-4.10;99.90;;;;;;5018128;28;20365;-88
2022/01/15 03:10:04;;;;;;;;;;;-4.00;99.90;;;;;;5034797;28;19909;-86
2022/01/15 03:12:30;;;;;;;;;;;-4.10;99.90;;;;;;5034692;28;20360;-87
2022/01/15 03:15:00;;;;;;;;;;;-4.10;99.90;;;;;;5034127;28;19963;-87
2022/01/15 03:17:26;;;;;;;;;;;-4.10;99.90;;;;;;5034146;28;20406;-87
2022/01/15 03:19:51;;;;;;;;;;;-4.10;99.90;;;;;;5034209;28;20003;-87
2022/01/15 03:22:17;;;;;;;;;;;-4.20;99.90;;;;;;5017624;28;20387;-86
2022/01/15 03:24:42;;;;;;;;;;;-4.20;99.90;;;;;;5016545;28;19921;-87
2022/01/15 03:27:08;;;;;;;;;;;-4.20;99.90;;;;;;5033226;28;19913;-86
2022/01/15 03:29:33;;;;;;;;;;;-4.30;99.90;;;;;;5016497;28;19913;-87
2022/01/15 03:31:59;;;;;;;;;;;-4.30;99.90;;;;;;5032402;28;19914;-86
2022/01/15 03:34:24;;;;;;;;;;;-4.30;99.90;;;;;;5049844;28;20015;-85
2022/01/15 03:36:50;;;;;;;;;;;-4.20;99.90;;;;;;5033336;28;19909;-86
2022/01/15 03:39:15;;;;;;;;;;;-4.30;99.90;;;;;;5033315;28;20399;-86
2022/01/15 03:41:41;;;;;;;;;;;-4.20;99.90;;;;;;5025396;28;19913;-88
2022/01/15 03:44:07;;;;;;;;;;;-4.20;99.90;;;;;;5014711;28;20012;-87
2022/01/15 03:46:32;;;;;;;;;;;-4.20;99.90;;;;;;5013544;28;20345;-86
2022/01/15 03:48:58;;;;;;;;;;;-4.20;99.90;;;;;;5013427;28;20377;-86
2022/01/15 03:51:23;;;;;;;;;;;-4.30;99.90;;;;;;5013024;28;19910;-85
2022/01/15 03:53:49;;;;;;;;;;;-4.30;99.90;;;;;;4996416;28;20322;-87
2022/01/15 03:56:15;;;;;;;;;;;-4.30;99.90;;;;;;5024842;28;19920;-87
2022/01/15 03:58:40;;;;;;;;;;;-4.30;99.90;;;;;;5032179;28;20016;-88
2022/01/15 04:01:06;;;;;;;;;;;-4.20;99.90;;;;;;5031909;28;20310;-87
2022/01/15 04:03:31;;;;;;;;;;;-4.20;99.90;;;;;;5032824;28;19932;-87
2022/01/15 04:05:57;;;;;;;;;;;-4.20;99.90;;;;;;5032574;28;19913;-87
2022/01/15 04:08:22;;;;;;;;;;;-4.20;99.90;;;;;;5032617;28;19943;-86
2022/01/15 04:10:48;;;;;;;;;;;-4.20;99.90;;;;;;5033101;28;20276;-86
2022/01/15 04:13:15;;;;;;;;;;;-4.10;99.90;;;;;;5032321;28;19952;-86
2022/01/15 04:15:41;;;;;;;;;;;-4.10;99.90;;;;;;5032540;28;19909;-86
2022/01/15 04:18:07;;;;;;;;;;;-4.10;99.90;;;;;;5032169;28;20316;-86
2022/01/15 04:20:32;;;;;;;;;;;-4.20;99.90;;;;;;5031993;28;19916;-87
2022/01/15 04:22:58;;;;;;;;;;;-4.20;99.90;;;;;;5032196;28;19928;-87
2022/01/15 04:25:23;;;;;;;;;;;-4.30;99.90;;;;;;5032084;28;19913;-86
2022/01/15 04:27:49;;;;;;;;;;;-4.30;99.90;;;;;;5032272;28;19909;-86
2022/01/15 04:30:16;;;;;;;;;;;-4.30;99.90;;;;;;5032149;28;19943;-87
2022/01/15 04:32:41;;;;;;;;;;;-4.30;99.90;;;;;;5032718;28;19910;-86
2022/01/15 04:35:08;;;;;;;;;;;-4.30;99.90;;;;;;5016263;28;19924;-86
2022/01/15 04:37:44;;;;;;;;;;;-4.30;99.90;;;;;;5035796;28;20383;-87
2022/01/15 04:40:10;;;;;;;;;;;-4.30;99.90;;;;;;5036262;28;19909;-86
2022/01/15 04:42:36;;;;;;;;;;;-4.30;99.90;;;;;;5019805;28;20494;-90
2022/01/15 04:45:03;;;;;;;;;;;-4.30;99.90;;;;;;5037905;28;19909;-87
2022/01/15 04:47:29;;;;;;;;;;;-4.30;99.90;;;;;;5036835;28;19917;-86
2022/01/15 04:49:55;;;;;;;;;;;-4.30;99.90;;;;;;5020871;28;19939;-87
2022/01/15 04:52:21;;;;;;;;;;;-4.30;99.90;;;;;;5035708;28;19956;-86
2022/01/15 04:54:47;;;;;;;;;;;-4.30;99.90;;;;;;5035466;28;19939;-87
2022/01/15 04:57:12;;;;;;;;;;;-4.10;99.90;;;;;;5035716;28;20000;-86
2022/01/15 04:59:38;;;;;;;;;;;-4.10;99.90;;;;;;5035591;28;19944;-88
2022/01/15 05:02:04;;;;;;;;;;;-4.10;99.90;;;;;;5052192;28;19915;-85
2022/01/15 05:04:29;;;;;;;;;;;-4.00;99.90;;;;;;5035880;28;20014;-86
2022/01/15 05:06:55;;;;;;;;;;;-4.00;99.90;;;;;;5035638;28;19913;-86
2022/01/15 05:09:20;;;;;;;;;;;-3.90;99.90;;;;;;5052499;28;19956;-87
2022/01/15 05:12:00;;;;;;;;;;;-4.00;99.90;;;;;;5035525;28;19913;-88
2022/01/15 05:14:25;;;;;;;;;;;-3.90;99.90;;;;;;5052142;28;19920;-88
2022/01/15 05:16:51;;;;;;;;;;;-3.90;99.90;;;;;;5052313;28;19913;-86
2022/01/15 05:19:17;;;;;;;;;;;-3.80;99.90;;;;;;5035852;28;19917;-89
2022/01/15 05:21:42;;;;;;;;;;;-3.90;99.90;;;;;;5035286;28;20327;-86
2022/01/15 05:24:08;;;;;;;;;;;-3.90;99.90;;;;;;5052773;28;20332;-86
2022/01/15 05:26:34;;;;;;;;;;;-3.80;99.90;;;;;;5053509;28;19916;-87
2022/01/15 05:29:00;;;;;;;;;;;-3.80;99.90;;;;;;5024543;28;19920;-87
2022/01/15 05:31:25;;;;;;;;;;;-3.80;99.90;;;;;;5042668;28;19917;-85
2022/01/15 05:33:52;;;;;;;;;;;-3.90;99.90;;;;;;5043741;28;19917;-87
2022/01/15 05:36:17;;;;;;;;;;;-3.90;99.90;;;;;;5040513;28;20328;-87
2022/01/15 05:38:43;;;;;;;;;;;-3.90;99.90;;;;;;5036993;28;19917;-86
2022/01/15 05:41:08;;;;;;;;;;;-3.80;99.90;;;;;;5035544;28;20404;-86
2022/01/15 05:43:34;;;;;;;;;;;-3.90;99.90;;;;;;5035532;28;19962;-86
2022/01/15 05:46:00;;;;;;;;;;;-3.90;99.90;;;;;;5036043;28;19923;-86
2022/01/15 05:48:25;;;;;;;;;;;-4.00;99.90;;;;;;5018683;28;19921;-86
2022/01/15 05:50:51;;;;;;;;;;;-4.00;99.90;;;;;;5019644;28;19974;-87
2022/01/15 05:53:16;;;;;;;;;;;-4.10;99.90;;;;;;5035756;28;19917;-86
2022/01/15 05:55:42;;;;;;;;;;;-4.10;99.90;;;;;;5035672;28;19956;-86
2022/01/15 05:58:07;;;;;;;;;;;-4.10;99.90;;;;;;5037527;28;19932;-87
2022/01/15 06:00:33;;;;;;;;;;;-4.10;99.90;;;;;;5019063;28;19924;-87
2022/01/15 06:02:59;;;;;;;;;;;-4.20;99.90;;;;;;5019801;28;19917;-86
2022/01/15 06:05:24;;;;;;;;;;;-4.20;99.90;;;;;;5036345;28;19917;-88
2022/01/15 06:07:50;;;;;;;;;;;-4.00;99.90;;;;;;5035319;28;20292;-86
2022/01/15 06:10:15;;;;;;;;;;;-4.00;99.90;;;;;;5035630;28;20356;-87
2022/01/15 06:12:43;;;;;;;;;;;-4.00;99.90;;;;;;5034895;28;20276;-88
2022/01/15 06:15:09;;;;;;;;;;;-4.00;99.90;;;;;;5019125;28;19920;-87
2022/01/15 06:17:35;;;;;;;;;;;-4.10;99.90;;;;;;5035256;28;20295;-86
2022/01/15 06:20:01;;;;;;;;;;;-4.20;99.90;;;;;;5018134;28;20008;-86
2022/01/15 06:22:26;;;;;;;;;;;-4.20;99.90;;;;;;5017607;28;19913;-85
2022/01/15 06:24:52;;;;;;;;;;;-4.20;99.90;;;;;;5035536;28;19916;-87
2022/01/15 06:27:19;;;;;;;;;;;-4.20;99.90;;;;;;5034220;28;20015;-88
2022/01/15 06:29:45;;;;;;;;;;;-4.00;99.90;;;;;;5034284;28;19916;-86
2022/01/15 06:32:10;;;;;;;;;;;-4.00;99.90;;;;;;5033733;28;19913;-87
2022/01/15 06:34:36;;;;;;;;;;;-4.00;99.90;;;;;;5033988;28;19921;-87
2022/01/15 06:37:01;;;;;;;;;;;-3.90;99.90;;;;;;5017353;28;19913;-87
2022/01/15 06:39:27;;;;;;;;;;;-4.10;99.90;;;;;;5033647;28;20008;-87
2022/01/15 06:41:52;;;;;;;;;;;-4.10;99.90;;;;;;5033818;28;19909;-86
2022/01/15 06:44:18;;;;;;;;;;;-4.00;99.90;;;;;;5033871;28;19920;-87
2022/01/15 06:46:43;;;;;;;;;;;-4.10;99.90;;;;;;5033609;28;19917;-87
2022/01/15 06:49:10;;;;;;;;;;;-4.00;99.90;;;;;;5033501;28;19913;-87
2022/01/15 06:51:35;;;;;;;;;;;-4.10;99.90;;;;;;5034789;28;19909;-87
2022/01/15 06:54:01;;;;;;;;;;;-3.90;99.90;;;;;;5033652;28;20272;-87
2022/01/15 06:56:27;;;;;;;;;;;-3.80;99.90;;;;;;5033816;28;19913;-87
2022/01/15 06:58:53;;;;;;;;;;;-3.60;99.90;;;;;;5033648;28;20388;-86
2022/01/15 07:01:18;;;;;;;;;;;-3.60;99.90;;;;;;5035512;28;19914;-86
2022/01/15 07:03:44;;;;;;;;;;;-3.50;99.90;;;;;;5020165;28;19957;-85
2022/01/15 07:06:09;;;;;;;;;;;-3.60;99.90;;;;;;5037360;28;19909;-88
2022/01/15 07:08:35;;;;;;;;;;;-3.60;99.90;;;;;;5037709;28;20328;-87
2022/01/15 07:11:01;;;;;;;;;;;-3.60;99.90;;;;;;5033247;28;19960;-87
2022/01/15 07:13:26;;;;;;;;;;;-3.60;99.90;;;;;;5033490;28;20047;-86
2022/01/15 07:15:52;;;;;;;;;;;-3.70;99.90;;;;;;5032914;28;19920;-87
2022/01/15 07:18:18;;;;;;;;;;;-3.70;99.90;;;;;;5033338;28;20369;-87
2022/01/15 07:20:44;;;;;;;;;;;-3.60;99.90;;;;;;5033006;28;20448;-87
2022/01/15 07:23:10;;;;;;;;;;;-3.60;99.90;;;;;;5032920;28;19921;-86
2022/01/15 07:25:35;;;;;;;;;;;-3.50;99.90;;;;;;5033488;28;20319;-88
2022/01/15 07:28:01;;;;;;;;;;;-3.50;99.90;;;;;;5033144;28;19916;-85
2022/01/15 07:30:26;;;;;;;;;;;-3.40;99.90;;;;;;5032468;28;20412;-86
2022/01/15 07:32:52;;;;;;;;;;;-3.50;99.90;;;;;;5033436;28;19917;-87
2022/01/15 07:35:18;;;;;;;;;;;-3.40;99.90;;;;;;5033758;28;20292;-87
2022/01/15 07:37:44;;;;;;;;;;;-3.30;99.90;;;;;;5033548;28;19913;-86
2022/01/15 07:40:09;;;;;;;;;;;-3.30;99.90;;;;;;5050035;28;20018;-87
2022/01/15 07:42:39;;;;;;;;;;;-3.40;99.90;;;;;;5033710;28;19913;-86
2022/01/15 07:45:12;;;;;;;;;;;-3.20;99.90;;;;;;5050715;28;19996;-86
2022/01/15 07:47:37;;;;;;;;;;;-3.20;99.90;;;;;;5033020;28;20412;-86
2022/01/15 07:50:04;;;;;;;;;;;-3.10;99.90;;;;;;5033045;28;19963;-86
2022/01/15 07:52:30;;;;;;;;;;;-3.00;99.90;;;;;;5017001;28;20111;-86
2022/01/15 07:54:58;;;;;;;;;;;-3.00;99.90;;;;;;5049921;28;19960;-88
2022/01/15 07:57:24;;;;;;;;;;;-3.10;99.90;;;;;;5049749;28;19915;-87
2022/01/15 07:59:50;;;;;;;;;;;-3.00;99.90;;;;;;5033342;28;19921;-89
2022/01/15 08:02:16;;;;;;;;;;;-2.80;99.90;;;;;;5048979;28;20389;-87
2022/01/15 08:04:42;;;;;;;;;;;-2.80;99.90;;;;;;5033045;28;19984;-86
2022/01/15 08:07:09;;;;;;;;;;;-2.80;99.90;;;;;;5018046;28;19921;-89
2022/01/15 08:09:35;;;;;;;;;;;-2.80;99.90;;;;;;5017081;28;19936;-87
2022/01/15 08:12:01;;;;;;;;;;;-2.80;99.90;;;;;;5038200;28;20349;-87
2022/01/15 08:14:26;;;;;;;;;;;-2.80;99.90;;;;;;5027939;28;19928;-87
2022/01/15 08:16:52;;;;;;;;;;;-2.80;99.90;;;;;;5045613;28;19971;-86
2022/01/15 08:19:17;;;;;;;;;;;-2.70;99.90;;;;;;5045492;28;19923;-86
2022/01/15 08:21:43;;;;;;;;;;;-2.70;99.90;;;;;;5029623;28;19913;-89
2022/01/15 08:24:10;;;;;;;;;;;-2.70;99.90;;;;;;5021422;28;20300;-86
2022/01/15 08:26:36;;;;;;;;;;;-2.80;99.90;;;;;;5036710;28;19916;-86
2022/01/15 08:29:01;;;;;;;;;;;-2.70;99.90;;;;;;5038882;28;19944;-87
2022/01/15 08:31:27;;;;;;;;;;;-2.80;99.90;;;;;;5038004;28;19944;-88
2022/01/15 08:33:53;;;;;;;;;;;-2.80;99.90;;;;;;5020644;28;19929;-86
2022/01/15 08:36:20;;;;;;;;;;;-2.60;99.90;;;;;;5038001;28;19909;-87
2022/01/15 08:38:46;;;;;;;;;;;-2.60;99.90;;;;;;5034635;28;20234;-87
2022/01/15 08:41:13;;;;;;;;;;;-2.60;99.90;;;;;;5020086;28;19920;-88
2022/01/15 08:43:39;;;;;;;;;;;-2.60;99.90;;;;;;5036508;28;19909;-86
2022/01/15 08:46:05;;;;;;;;;;;-2.70;99.90;;;;;;5036553;28;20319;-86
2022/01/15 08:48:30;;;;;;;;;;;-2.80;99.90;;;;;;5035623;28;19920;-87
2022/01/15 08:50:56;;;;;;;;;;;-2.80;99.90;;;;;;5019511;28;19973;-88
2022/01/15 08:53:22;;;;;;;;;;;-2.80;99.90;;;;;;5052933;28;19924;-88
2022/01/15 08:55:48;;;;;;;;;;;-2.80;99.90;;;;;;5035616;28;19917;-87
2022/01/15 08:58:13;;;;;;;;;;;-2.70;99.90;;;;;;5036432;28;19909;-88
2022/01/15 09:00:39;;;;;;;;;;;-2.50;99.90;;;;;;5034932;28;19924;-87
2022/01/15 09:03:07;;;;;;;;;;;-2.40;99.90;;;;;;5036041;28;19909;-86
2022/01/15 09:05:34;;;;;;;;;;;-2.50;99.90;;;;;;5019039;28;19957;-88
2022/01/15 09:07:59;;;;;;;;;;;-2.60;99.90;;;;;;5035578;28;19913;-86
2022/01/15 09:10:25;;;;;;;;;;;-2.50;99.90;;;;;;5052650;28;19917;-89
2022/01/15 09:12:51;;;;;;;;;;;-2.50;99.90;;;;;;5035663;28;19913;-87
2022/01/15 09:15:17;;;;;;;;;;;-2.40;99.90;;;;;;5018324;28;20009;-87
2022/01/15 09:17:43;;;;;;;;;;;-2.30;99.90;;;;;;5034501;28;19963;-87
2022/01/15 09:20:09;;;;;;;;;;;-2.40;99.90;;;;;;5034097;28;19909;-86
2022/01/15 09:22:34;;;;;;;;;;;-2.20;99.90;;;;;;4967639;28;1886755;-87
2022/01/15 09:25:00;;;;;;;;;;;-2.10;99.90;;;;;;5035817;28;19920;-87
2022/01/15 09:30:15;;;;;;;;;;;-2.00;99.90;;;;;;5036106;28;19916;-87
2022/01/15 09:32:43;;;;;;;;;;;-2.10;99.90;;;;;;5050834;28;19913;-87
2022/01/15 09:35:08;;;;;;;;;;;-2.10;99.90;;;;;;5018153;28;20364;-88
2022/01/15 09:37:34;;;;;;;;;;;-2.00;99.90;;;;;;5034350;28;19910;-88
2022/01/15 09:40:00;;;;;;;;;;;-2.00;99.90;;;;;;5034357;28;19913;-87
2022/01/15 09:42:26;;;;;;;;;;;-1.90;99.90;;;;;;5034046;28;19916;-86
2022/01/15 09:44:52;;;;;;;;;;;-1.90;99.90;;;;;;5035716;28;20177;-85
2022/01/15 09:47:20;;;;;;;;;;;-1.60;99.90;;;;;;5018076;28;20390;-86
2022/01/15 09:49:46;;;;;;;;;;;-1.60;99.90;;;;;;5036354;28;20411;-87
2022/01/15 09:52:12;;;;;;;;;;;-1.50;99.90;;;;;;5034712;28;19917;-87
2022/01/15 09:54:38;;;;;;;;;;;-1.40;99.90;;;;;;5034649;28;19922;-86
2022/01/15 09:57:04;;;;;;;;;;;-1.50;99.90;;;;;;5035451;28;19909;-85
2022/01/15 09:59:30;;;;;;;;;;;-1.50;99.90;;;;;;5034537;28;19916;-86
2022/01/15 10:01:57;;;;;;;;;;;-1.50;99.90;;;;;;5033892;28;19921;-87
2022/01/15 10:04:23;;;;;;;;;;;-1.50;99.90;;;;;;5016716;28;19913;-87
2022/01/15 10:07:09;;;;;;;;;;;-1.40;99.90;;;;;;5033020;28;19940;-86
2022/01/15 10:09:37;;;;;;;;;;;-1.00;99.90;;;;;;5032714;28;19909;-86
2022/01/15 10:12:03;;;;;;;;;;;-1.00;99.90;;;;;;5017152;28;19916;-86
2022/01/15 10:14:29;;;;;;;;;;;-0.90;99.90;;;;;;5028496;28;19924;-85
2022/01/15 10:16:55;;;;;;;;;;;-0.90;99.90;;;;;;5032395;28;19992;-87
2022/01/15 10:19:39;;;;;;;;;;;-0.80;99.90;;;;;;5032893;28;20631;-87
2022/01/15 10:22:05;;;;;;;;;;;-1.10;99.90;;;;;;5032766;28;19917;-86
2022/01/15 10:24:31;;;;;;;;;;;-1.00;99.90;;;;;;5049764;28;20213;-87
2022/01/15 10:27:16;;;;;;;;;;;-0.70;99.90;;;;;;5032096;28;20353;-86
2022/01/15 10:29:41;;;;;;;;;;;-0.60;99.90;;;;;;5031873;28;19920;-85
2022/01/15 10:32:12;;;;;;;;;;;-0.60;99.90;;;;;;5015069;28;19917;-88
2022/01/15 10:34:38;;;;;;;;;;;-0.60;99.90;;;;;;5031748;28;19916;-87
2022/01/15 10:37:08;;;;;;;;;;;-0.60;99.90;;;;;;5032316;28;19936;-88
2022/01/15 10:39:33;;;;;;;;;;;-0.60;99.90;;;;;;5030994;28;19913;-89
2022/01/15 10:41:59;;;;;;;;;;;-0.90;99.90;;;;;;5032504;28;19909;-87
2022/01/15 10:44:29;;;;;;;;;;;-0.60;99.90;;;;;;5015501;28;19975;-86
2022/01/15 10:47:05;;;;;;;;;;;-0.70;99.90;;;;;;5015555;28;19924;-86
2022/01/15 10:49:31;;;;;;;;;;;-0.50;99.90;;;;;;5031248;28;19920;-88
2022/01/15 10:52:04;;;;;;;;;;;-0.60;99.90;;;;;;5030710;28;19947;-86
2022/01/15 10:54:30;;;;;;;;;;;-0.50;99.90;;;;;;5048096;28;20039;-88
2022/01/15 10:57:07;;;;;;;;;;;-0.40;99.90;;;;;;5031388;28;19913;-87
2022/01/15 10:59:32;;;;;;;;;;;-0.50;99.90;;;;;;5016758;28;20004;-86
2022/01/15 11:02:17;;;;;;;;;;;-0.70;99.90;;;;;;5035137;28;19959;-87
2022/01/15 11:04:43;;;;;;;;;;;-0.60;99.90;;;;;;5037637;28;20260;-86
2022/01/15 11:07:12;;;;;;;;;;;-0.60;99.90;;;;;;5036001;28;19909;-87
2022/01/15 11:09:38;;;;;;;;;;;-0.60;99.90;;;;;;5032747;28;19917;-88
2022/01/15 11:12:05;;;;;;;;;;;-0.60;99.90;;;;;;5031810;28;19920;-89
2022/01/15 11:14:30;;;;;;;;;;;-0.70;99.90;;;;;;5032374;28;19917;-88
2022/01/15 11:16:57;;;;;;;;;;;-0.60;99.90;;;;;;5031817;28;19955;-88
2022/01/15 11:19:24;;;;;;;;;;;-0.40;99.90;;;;;;5031490;28;20368;-86
2022/01/15 11:21:50;;;;;;;;;;;-0.30;99.90;;;;;;5031507;28;19973;-88
2022/01/15 11:24:17;;;;;;;;;;;-0.20;99.90;;;;;;5048299;28;20018;-87
2022/01/15 11:26:43;;;;;;;;;;;0.00;99.90;;;;;;5031470;28;20012;-89
2022/01/15 11:29:10;;;;;;;;;;;0.00;99.90;;;;;;5013242;28;20376;-87
2022/01/15 11:31:36;;;;;;;;;;;-0.20;99.90;;;;;;5028102;28;20429;-86
2022/01/15 11:34:03;;;;;;;;;;;-0.30;99.90;;;;;;5025871;28;19917;-88
2022/01/15 11:36:39;;;;;;;;;;;-0.20;99.90;;;;;;5027700;28;19910;-89
2022/01/15 11:39:06;;;;;;;;;;;-0.10;99.90;;;;;;5030732;28;19909;-87
2022/01/15 11:41:32;;;;;;;;;;;-0.20;99.90;;;;;;5031352;28;19913;-89
2022/01/15 11:43:58;;;;;;;;;;;-0.20;99.90;;;;;;5026981;28;20008;-87
2022/01/15 11:46:28;;;;;;;;;;;-0.10;99.90;;;;;;5026436;28;19920;-86
2022/01/15 11:49:15;;;;;;;;;;;-0.20;99.90;;;;;;5019456;28;19913;-86
2022/01/15 11:51:40;;;;;;;;;;;-0.40;99.90;;;;;;5030474;28;19959;-88
2022/01/15 11:54:12;;;;;;;;;;;-0.20;99.90;;;;;;5030599;28;19961;-88
2022/01/15 11:56:39;;;;;;;;;;;-0.40;99.90;;;;;;5026116;28;19921;-86
2022/01/15 11:59:23;;;;;;;;;;;-0.40;99.90;;;;;;5022527;28;20321;-86
2022/01/15 12:01:50;;;;;;;;;;;-0.40;99.90;;;;;;5020849;28;19921;-88
2022/01/15 12:04:21;;;;;;;;;;;-0.40;99.90;;;;;;5030441;28;20000;-89
2022/01/15 12:07:05;;;;;;;;;;;-0.30;99.90;;;;;;5022209;28;20009;-86
2022/01/15 12:09:35;;;;;;;;;;;-0.20;99.90;;;;;;5029829;28;19913;-87
2022/01/15 12:12:01;;;;;;;;;;;-0.30;99.90;;;;;;5026638;28;19959;-88
2022/01/15 12:14:45;;;;;;;;;;;-0.10;99.90;;;;;;5030602;28;19971;-86
2022/01/15 12:17:28;;;;;;;;;;;-0.30;99.90;;;;;;5023083;28;19996;-86
2022/01/15 12:19:54;;;;;;;;;;;-0.40;99.90;;;;;;5031299;28;20009;-87
2022/01/15 12:22:37;;;;;;;;;;;-0.40;99.90;;;;;;5031174;28;19917;-88
2022/01/15 12:25:05;;;;;;;;;;;-0.50;99.90;;;;;;5042876;28;19921;-88
2022/01/15 12:27:32;;;;;;;;;;;-0.50;99.90;;;;;;5030434;28;19956;-88
2022/01/15 12:29:59;;;;;;;;;;;-0.20;99.90;;;;;;5028996;28;20023;-87
2022/01/15 12:32:26;;;;;;;;;;;-0.20;99.90;;;;;;5029081;28;20269;-89
2022/01/15 12:34:52;;;;;;;;;;;0.10;99.90;;;;;;5030912;28;19913;-88
2022/01/15 12:37:17;;;;;;;;;;;0.00;99.90;;;;;;5030713;28;19956;-89
2022/01/15 12:39:43;;;;;;;;;;;-0.10;99.90;;;;;;5021259;28;20361;-90
2022/01/15 12:42:10;;;;;;;;;;;0.00;99.90;;;;;;5009563;28;19916;-88
2022/01/15 12:44:51;;;;;;;;;;;-0.10;99.90;;;;;;5022625;28;19913;-87
2022/01/15 12:47:17;;;;;;;;;;;-0.30;99.90;;;;;;5030879;28;19910;-86
2022/01/15 12:49:45;;;;;;;;;;;-0.20;99.90;;;;;;5029823;28;19979;-87
2022/01/15 12:52:15;;;;;;;;;;;-0.30;99.90;;;;;;5028078;28;19955;-87
2022/01/15 12:54:41;;;;;;;;;;;-0.20;99.90;;;;;;5030905;28;19912;-85
2022/01/15 12:57:07;;;;;;;;;;;0.00;99.90;;;;;;5029899;28;20079;-88
2022/01/15 12:59:33;;;;;;;;;;;-0.10;99.90;;;;;;5017057;28;19920;-89
2022/01/15 13:02:05;;;;;;;;;;;-0.20;99.90;;;;;;5015005;28;19917;-86
2022/01/15 13:04:31;;;;;;;;;;;-0.30;99.90;;;;;;5032867;28;20339;-87
2022/01/15 13:06:58;;;;;;;;;;;-0.20;99.90;;;;;;5032781;28;19909;-85
2022/01/15 13:09:37;;;;;;;;;;;-0.30;99.90;;;;;;5032923;28;19914;-87
2022/01/15 13:12:03;;;;;;;;;;;-0.40;99.90;;;;;;5032426;28;19916;-87
2022/01/15 13:14:37;;;;;;;;;;;-0.30;99.90;;;;;;5032757;28;19920;-86
2022/01/15 13:17:03;;;;;;;;;;;-0.20;99.90;;;;;;5032914;28;19996;-88
2022/01/15 13:19:36;;;;;;;;;;;-0.10;99.90;;;;;;5033061;28;19909;-85
2022/01/15 13:22:01;;;;;;;;;;;-0.10;99.90;;;;;;5032098;28;19913;-86
2022/01/15 13:24:27;;;;;;;;;;;0.00;99.90;;;;;;5033003;28;19970;-86
2022/01/15 13:26:57;;;;;;;;;;;0.00;99.90;;;;;;5033182;28;19959;-86
2022/01/15 13:29:35;;;;;;;;;;;0.00;99.90;;;;;;5034176;28;20285;-87
2022/01/15 13:32:01;;;;;;;;;;;-0.10;99.90;;;;;;5030952;28;20000;-86
2022/01/15 13:34:29;;;;;;;;;;;0.00;99.90;;;;;;5032522;28;20012;-87
2022/01/15 13:36:55;;;;;;;;;;;-0.20;99.90;;;;;;5032326;28;19919;-89
2022/01/15 13:39:22;;;;;;;;;;;0.00;99.90;;;;;;5032672;28;19917;-87
2022/01/15 13:41:48;;;;;;;;;;;0.00;99.90;;;;;;5032634;28;19920;-88
2022/01/15 13:44:15;;;;;;;;;;;-0.10;99.90;;;;;;5031471;28;19952;-85
2022/01/15 13:46:47;;;;;;;;;;;-0.10;99.90;;;;;;5034350;28;19917;-85
2022/01/15 13:49:14;;;;;;;;;;;-0.10;99.90;;;;;;5034180;28;20666;-88
2022/01/15 13:54:31;;;;;;;;;;;0.00;99.90;;;;;;5041632;28;19970;-87
2022/01/15 13:57:03;;;;;;;;;;;-0.20;99.90;;;;;;5040624;28;20010;-88
2022/01/15 13:59:28;;;;;;;;;;;-0.30;99.90;;;;;;5021019;28;19928;-84
2022/01/15 14:01:57;;;;;;;;;;;-0.30;99.90;;;;;;5050322;28;19914;-88
2022/01/15 14:04:36;;;;;;;;;;;-0.20;99.90;;;;;;5015633;28;19972;-88
2022/01/15 14:07:07;;;;;;;;;;;-0.20;99.90;;;;;;5047337;28;19940;-88
2022/01/15 14:09:33;;;;;;;;;;;-0.20;99.90;;;;;;5031998;28;19924;-86
2022/01/15 14:12:02;;;;;;;;;;;-0.20;99.90;;;;;;5016152;28;20020;-85
2022/01/15 14:14:29;;;;;;;;;;;-0.20;99.90;;;;;;5032732;28;20262;-85
2022/01/15 14:17:00;;;;;;;;;;;-0.20;99.90;;;;;;5016652;28;20351;-86
2022/01/15 14:21:54;;;;;;;;;;;-0.40;99.90;;;;;;5032992;28;19916;-85
2022/01/15 14:24:22;;;;;;;;;;;-0.50;99.90;;;;;;5032275;28;19921;-90
2022/01/15 14:26:49;;;;;;;;;;;-0.40;99.90;;;;;;5032870;28;19959;-86
2022/01/15 14:29:15;;;;;;;;;;;-0.20;99.90;;;;;;5048143;28;20319;-89
2022/01/15 14:31:41;;;;;;;;;;;-0.30;99.90;;;;;;5029123;28;19917;-86
2022/01/15 14:34:07;;;;;;;;;;;-0.20;99.90;;;;;;5014970;28;20680;-89
2022/01/15 14:36:32;;;;;;;;;;;-0.30;99.90;;;;;;5033040;28;19913;-87
2022/01/15 14:39:04;;;;;;;;;;;-0.50;99.90;;;;;;5031564;28;19982;-88
2022/01/15 14:41:36;;;;;;;;;;;-0.40;99.90;;;;;;5012035;28;19951;-88